sensor_id;sensor_type;location;lat;lon;timestamp;P1;durP1;ratioP1;P2;durP2;ratioP2
40256;SDS011;25977;45.462;9.210;2024-03-02T00:00:03;8.77;;;7.35;;
40256;SDS011;25977;45.462;9.210;2024-03-02T00:02:41;6.80;;;6.22;;
40256;SDS011;25977;45.462;9.210;2024-03-02T00:05:10;7.90;;;5.80;;
40256;SDS011;25977;45.462;9.210;2024-03-02T00:07:43;8.02;;;6.75;;
40256;SDS011;25977;45.462;9.210;2024-03-02T00:10:12;7.28;;;6.57;;
40256;SDS011;25977;45.462;9.210;2024-03-02T00:12:45;9.10;;;6.03;;
40256;SDS011;25977;45.462;9.210;2024-03-02T00:18:02;7.38;;;5.93;;
40256;SDS011;25977;45.462;9.210;2024-03-02T00:20:29;8.23;;;7.32;;
40256;SDS011;25977;45.462;9.210;2024-03-02T00:23:03;9.38;;;7.30;;
40256;SDS011;25977;45.462;9.210;2024-03-02T00:25:43;7.93;;;7.22;;
40256;SDS011;25977;45.462;9.210;2024-03-02T00:28:13;7.55;;;6.75;;
40256;SDS011;25977;45.462;9.210;2024-03-02T00:33:21;9.23;;;8.18;;
40256;SDS011;25977;45.462;9.210;2024-03-02T00:35:47;8.68;;;5.80;;
40256;SDS011;25977;45.462;9.210;2024-03-02T00:38:14;7.80;;;6.80;;
40256;SDS011;25977;45.462;9.210;2024-03-02T00:40:44;7.03;;;5.93;;
40256;SDS011;25977;45.462;9.210;2024-03-02T00:43:27;12.70;;;7.35;;
40256;SDS011;25977;45.462;9.210;2024-03-02T00:46:11;5.90;;;5.38;;
40256;SDS011;25977;45.462;9.210;2024-03-02T00:48:38;8.48;;;7.47;;
40256;SDS011;25977;45.462;9.210;2024-03-02T00:51:13;7.57;;;6.35;;
40256;SDS011;25977;45.462;9.210;2024-03-02T00:53:39;10.77;;;7.15;;
40256;SDS011;25977;45.462;9.210;2024-03-02T00:56:04;8.40;;;6.60;;
40256;SDS011;25977;45.462;9.210;2024-03-02T00:58:39;7.32;;;6.05;;
40256;SDS011;25977;45.462;9.210;2024-03-02T01:01:04;9.93;;;7.38;;
40256;SDS011;25977;45.462;9.210;2024-03-02T01:03:32;8.00;;;7.20;;
40256;SDS011;25977;45.462;9.210;2024-03-02T01:05:58;6.53;;;5.93;;
40256;SDS011;25977;45.462;9.210;2024-03-02T01:08:24;8.30;;;7.40;;
40256;SDS011;25977;45.462;9.210;2024-03-02T01:10:50;10.55;;;7.13;;
40256;SDS011;25977;45.462;9.210;2024-03-02T01:13:16;7.95;;;7.05;;
40256;SDS011;25977;45.462;9.210;2024-03-02T01:15:42;7.45;;;6.63;;
40256;SDS011;25977;45.462;9.210;2024-03-02T01:18:07;9.70;;;7.45;;
40256;SDS011;25977;45.462;9.210;2024-03-02T01:20:33;11.82;;;8.32;;
40256;SDS011;25977;45.462;9.210;2024-03-02T01:22:59;8.65;;;6.65;;
40256;SDS011;25977;45.462;9.210;2024-03-02T01:25:25;11.75;;;7.47;;
40256;SDS011;25977;45.462;9.210;2024-03-02T01:27:50;8.38;;;7.43;;
40256;SDS011;25977;45.462;9.210;2024-03-02T01:30:16;9.05;;;6.07;;
40256;SDS011;25977;45.462;9.210;2024-03-02T01:32:42;8.52;;;5.85;;
40256;SDS011;25977;45.462;9.210;2024-03-02T01:35:08;9.70;;;6.53;;
40256;SDS011;25977;45.462;9.210;2024-03-02T01:37:34;7.90;;;6.22;;
40256;SDS011;25977;45.462;9.210;2024-03-02T01:40:00;6.40;;;5.78;;
40256;SDS011;25977;45.462;9.210;2024-03-02T01:42:26;10.02;;;6.32;;
40256;SDS011;25977;45.462;9.210;2024-03-02T01:44:52;8.75;;;6.85;;
40256;SDS011;25977;45.462;9.210;2024-03-02T01:47:17;9.05;;;7.13;;
40256;SDS011;25977;45.462;9.210;2024-03-02T01:49:44;6.25;;;5.65;;
40256;SDS011;25977;45.462;9.210;2024-03-02T01:52:09;7.57;;;6.55;;
40256;SDS011;25977;45.462;9.210;2024-03-02T01:54:36;8.80;;;5.75;;
40256;SDS011;25977;45.462;9.210;2024-03-02T01:57:01;5.05;;;4.65;;
40256;SDS011;25977;45.462;9.210;2024-03-02T01:59:28;6.10;;;4.53;;
40256;SDS011;25977;45.462;9.210;2024-03-02T02:01:54;5.65;;;4.18;;
40256;SDS011;25977;45.462;9.210;2024-03-02T02:04:20;6.88;;;4.60;;
40256;SDS011;25977;45.462;9.210;2024-03-02T02:06:52;6.47;;;5.10;;
40256;SDS011;25977;45.462;9.210;2024-03-02T02:09:17;7.07;;;4.65;;
40256;SDS011;25977;45.462;9.210;2024-03-02T02:11:43;4.95;;;4.50;;
40256;SDS011;25977;45.462;9.210;2024-03-02T02:14:09;4.95;;;4.32;;
40256;SDS011;25977;45.462;9.210;2024-03-02T02:16:35;5.95;;;4.70;;
40256;SDS011;25977;45.462;9.210;2024-03-02T02:19:00;6.00;;;5.00;;
40256;SDS011;25977;45.462;9.210;2024-03-02T02:21:26;4.93;;;4.53;;
40256;SDS011;25977;45.462;9.210;2024-03-02T02:23:52;6.85;;;4.53;;
40256;SDS011;25977;45.462;9.210;2024-03-02T02:26:18;6.63;;;5.25;;
40256;SDS011;25977;45.462;9.210;2024-03-02T02:28:44;5.72;;;5.20;;
40256;SDS011;25977;45.462;9.210;2024-03-02T02:31:12;5.55;;;4.93;;
40256;SDS011;25977;45.462;9.210;2024-03-02T02:33:42;5.80;;;4.82;;
40256;SDS011;25977;45.462;9.210;2024-03-02T02:36:08;6.85;;;5.55;;
40256;SDS011;25977;45.462;9.210;2024-03-02T02:38:36;9.27;;;5.95;;
40256;SDS011;25977;45.462;9.210;2024-03-02T02:41:05;10.73;;;7.00;;
40256;SDS011;25977;45.462;9.210;2024-03-02T02:43:31;7.63;;;6.30;;
40256;SDS011;25977;45.462;9.210;2024-03-02T02:45:56;8.27;;;5.95;;
40256;SDS011;25977;45.462;9.210;2024-03-02T02:48:22;8.15;;;7.35;;
40256;SDS011;25977;45.462;9.210;2024-03-02T02:50:48;6.90;;;5.95;;
40256;SDS011;25977;45.462;9.210;2024-03-02T02:53:13;7.20;;;6.45;;
40256;SDS011;25977;45.462;9.210;2024-03-02T02:55:39;8.07;;;7.28;;
40256;SDS011;25977;45.462;9.210;2024-03-02T02:58:06;6.45;;;5.22;;
40256;SDS011;25977;45.462;9.210;2024-03-02T03:00:32;8.10;;;6.22;;
40256;SDS011;25977;45.462;9.210;2024-03-02T03:02:58;6.55;;;5.38;;
40256;SDS011;25977;45.462;9.210;2024-03-02T03:05:23;8.10;;;5.55;;
40256;SDS011;25977;45.462;9.210;2024-03-02T03:07:49;6.97;;;5.70;;
40256;SDS011;25977;45.462;9.210;2024-03-02T03:10:15;6.95;;;5.15;;
40256;SDS011;25977;45.462;9.210;2024-03-02T03:12:41;7.45;;;5.18;;
40256;SDS011;25977;45.462;9.210;2024-03-02T03:15:08;6.20;;;5.32;;
40256;SDS011;25977;45.462;9.210;2024-03-02T03:17:35;7.00;;;5.32;;
40256;SDS011;25977;45.462;9.210;2024-03-02T03:20:02;8.48;;;5.32;;
40256;SDS011;25977;45.462;9.210;2024-03-02T03:22:29;9.52;;;5.97;;
40256;SDS011;25977;45.462;9.210;2024-03-02T03:24:58;8.35;;;5.25;;
40256;SDS011;25977;45.462;9.210;2024-03-02T03:27:24;7.35;;;5.05;;
40256;SDS011;25977;45.462;9.210;2024-03-02T03:29:50;7.82;;;5.00;;
40256;SDS011;25977;45.462;9.210;2024-03-02T03:32:16;7.63;;;5.65;;
40256;SDS011;25977;45.462;9.210;2024-03-02T03:34:41;4.88;;;4.40;;
40256;SDS011;25977;45.462;9.210;2024-03-02T03:37:07;6.30;;;5.75;;
40256;SDS011;25977;45.462;9.210;2024-03-02T03:39:33;6.93;;;5.28;;
40256;SDS011;25977;45.462;9.210;2024-03-02T03:42:01;7.22;;;6.40;;
40256;SDS011;25977;45.462;9.210;2024-03-02T03:44:26;8.23;;;4.95;;
40256;SDS011;25977;45.462;9.210;2024-03-02T03:46:53;9.98;;;6.38;;
40256;SDS011;25977;45.462;9.210;2024-03-02T03:49:18;9.82;;;6.38;;
40256;SDS011;25977;45.462;9.210;2024-03-02T03:51:45;8.65;;;5.82;;
40256;SDS011;25977;45.462;9.210;2024-03-02T03:54:12;10.40;;;6.32;;
40256;SDS011;25977;45.462;9.210;2024-03-02T03:56:38;8.20;;;5.97;;
40256;SDS011;25977;45.462;9.210;2024-03-02T03:59:04;7.78;;;5.65;;
40256;SDS011;25977;45.462;9.210;2024-03-02T04:01:30;9.77;;;5.90;;
40256;SDS011;25977;45.462;9.210;2024-03-02T04:03:56;10.82;;;6.25;;
40256;SDS011;25977;45.462;9.210;2024-03-02T04:06:23;6.30;;;5.25;;
40256;SDS011;25977;45.462;9.210;2024-03-02T04:08:48;6.38;;;5.68;;
40256;SDS011;25977;45.462;9.210;2024-03-02T04:11:14;6.82;;;6.00;;
40256;SDS011;25977;45.462;9.210;2024-03-02T04:13:40;8.50;;;6.35;;
40256;SDS011;25977;45.462;9.210;2024-03-02T04:16:06;6.60;;;5.85;;
40256;SDS011;25977;45.462;9.210;2024-03-02T04:18:31;6.80;;;5.95;;
40256;SDS011;25977;45.462;9.210;2024-03-02T04:20:57;6.82;;;6.25;;
40256;SDS011;25977;45.462;9.210;2024-03-02T04:23:24;6.63;;;5.35;;
40256;SDS011;25977;45.462;9.210;2024-03-02T04:25:51;9.27;;;6.63;;
40256;SDS011;25977;45.462;9.210;2024-03-02T04:28:16;7.05;;;6.10;;
40256;SDS011;25977;45.462;9.210;2024-03-02T04:30:42;7.75;;;6.47;;
40256;SDS011;25977;45.462;9.210;2024-03-02T04:33:08;6.53;;;5.70;;
40256;SDS011;25977;45.462;9.210;2024-03-02T04:35:38;11.13;;;5.97;;
40256;SDS011;25977;45.462;9.210;2024-03-02T04:38:03;6.43;;;5.93;;
40256;SDS011;25977;45.462;9.210;2024-03-02T04:40:29;7.03;;;6.32;;
40256;SDS011;25977;45.462;9.210;2024-03-02T04:42:55;8.93;;;6.22;;
40256;SDS011;25977;45.462;9.210;2024-03-02T04:45:21;7.13;;;5.93;;
40256;SDS011;25977;45.462;9.210;2024-03-02T04:47:46;7.78;;;6.18;;
40256;SDS011;25977;45.462;9.210;2024-03-02T04:50:12;6.60;;;6.00;;
40256;SDS011;25977;45.462;9.210;2024-03-02T04:52:38;6.00;;;5.55;;
40256;SDS011;25977;45.462;9.210;2024-03-02T04:55:04;6.68;;;6.07;;
40256;SDS011;25977;45.462;9.210;2024-03-02T04:57:42;6.70;;;5.93;;
40256;SDS011;25977;45.462;9.210;2024-03-02T05:00:09;6.90;;;6.28;;
40256;SDS011;25977;45.462;9.210;2024-03-02T05:02:35;7.65;;;6.95;;
40256;SDS011;25977;45.462;9.210;2024-03-02T05:05:01;6.20;;;5.55;;
40256;SDS011;25977;45.462;9.210;2024-03-02T05:07:28;7.88;;;5.45;;
40256;SDS011;25977;45.462;9.210;2024-03-02T05:09:53;5.88;;;5.35;;
40256;SDS011;25977;45.462;9.210;2024-03-02T05:12:19;5.40;;;4.95;;
40256;SDS011;25977;45.462;9.210;2024-03-02T05:15:20;6.18;;;5.53;;
40256;SDS011;25977;45.462;9.210;2024-03-02T05:17:46;6.03;;;5.45;;
40256;SDS011;25977;45.462;9.210;2024-03-02T05:20:12;5.32;;;4.93;;
40256;SDS011;25977;45.462;9.210;2024-03-02T05:22:38;5.38;;;4.05;;
40256;SDS011;25977;45.462;9.210;2024-03-02T05:25:04;7.47;;;4.85;;
40256;SDS011;25977;45.462;9.210;2024-03-02T05:27:31;4.15;;;3.83;;
40256;SDS011;25977;45.462;9.210;2024-03-02T05:29:58;6.35;;;5.78;;
40256;SDS011;25977;45.462;9.210;2024-03-02T05:32:24;4.47;;;4.13;;
40256;SDS011;25977;45.462;9.210;2024-03-02T05:34:50;5.90;;;4.65;;
40256;SDS011;25977;45.462;9.210;2024-03-02T05:37:18;4.57;;;4.28;;
40256;SDS011;25977;45.462;9.210;2024-03-02T05:39:45;4.82;;;4.50;;
40256;SDS011;25977;45.462;9.210;2024-03-02T05:42:11;4.60;;;4.20;;
40256;SDS011;25977;45.462;9.210;2024-03-02T05:44:37;5.85;;;5.22;;
40256;SDS011;25977;45.462;9.210;2024-03-02T05:47:03;4.90;;;4.50;;
40256;SDS011;25977;45.462;9.210;2024-03-02T05:49:29;5.85;;;4.72;;
40256;SDS011;25977;45.462;9.210;2024-03-02T05:51:55;7.05;;;5.18;;
40256;SDS011;25977;45.462;9.210;2024-03-02T05:54:20;4.97;;;4.40;;
40256;SDS011;25977;45.462;9.210;2024-03-02T05:56:46;4.80;;;4.40;;
40256;SDS011;25977;45.462;9.210;2024-03-02T05:59:12;5.50;;;4.68;;
40256;SDS011;25977;45.462;9.210;2024-03-02T06:01:38;4.78;;;4.38;;
40256;SDS011;25977;45.462;9.210;2024-03-02T06:04:05;5.25;;;4.38;;
40256;SDS011;25977;45.462;9.210;2024-03-02T06:06:30;5.53;;;4.90;;
40256;SDS011;25977;45.462;9.210;2024-03-02T06:08:59;5.35;;;4.85;;
40256;SDS011;25977;45.462;9.210;2024-03-02T06:11:25;5.15;;;4.65;;
40256;SDS011;25977;45.462;9.210;2024-03-02T06:13:51;5.35;;;4.95;;
40256;SDS011;25977;45.462;9.210;2024-03-02T06:16:16;5.97;;;5.38;;
40256;SDS011;25977;45.462;9.210;2024-03-02T06:18:42;5.25;;;4.75;;
40256;SDS011;25977;45.462;9.210;2024-03-02T06:21:08;6.22;;;4.85;;
40256;SDS011;25977;45.462;9.210;2024-03-02T06:23:33;5.15;;;4.75;;
40256;SDS011;25977;45.462;9.210;2024-03-02T06:26:00;6.30;;;5.00;;
40256;SDS011;25977;45.462;9.210;2024-03-02T06:28:25;9.68;;;4.60;;
40256;SDS011;25977;45.462;9.210;2024-03-02T06:30:51;5.28;;;4.80;;
40256;SDS011;25977;45.462;9.210;2024-03-02T06:33:17;7.05;;;4.65;;
40256;SDS011;25977;45.462;9.210;2024-03-02T06:35:43;5.70;;;4.40;;
40256;SDS011;25977;45.462;9.210;2024-03-02T06:38:08;4.68;;;4.25;;
40256;SDS011;25977;45.462;9.210;2024-03-02T06:40:34;4.35;;;3.95;;
40256;SDS011;25977;45.462;9.210;2024-03-02T06:43:00;4.63;;;4.22;;
40256;SDS011;25977;45.462;9.210;2024-03-02T06:45:26;4.43;;;4.13;;
40256;SDS011;25977;45.462;9.210;2024-03-02T06:47:51;8.32;;;5.40;;
40256;SDS011;25977;45.462;9.210;2024-03-02T06:50:17;4.68;;;4.35;;
40256;SDS011;25977;45.462;9.210;2024-03-02T06:52:44;4.57;;;4.18;;
40256;SDS011;25977;45.462;9.210;2024-03-02T06:55:09;6.63;;;5.25;;
40256;SDS011;25977;45.462;9.210;2024-03-02T06:57:35;5.00;;;4.50;;
40256;SDS011;25977;45.462;9.210;2024-03-02T07:00:01;10.43;;;5.03;;
40256;SDS011;25977;45.462;9.210;2024-03-02T07:02:30;9.73;;;5.15;;
40256;SDS011;25977;45.462;9.210;2024-03-02T07:04:55;6.50;;;5.90;;
40256;SDS011;25977;45.462;9.210;2024-03-02T07:07:21;6.43;;;5.75;;
40256;SDS011;25977;45.462;9.210;2024-03-02T07:09:47;6.78;;;6.18;;
40256;SDS011;25977;45.462;9.210;2024-03-02T07:12:13;6.20;;;5.60;;
40256;SDS011;25977;45.462;9.210;2024-03-02T07:14:39;5.63;;;4.30;;
40256;SDS011;25977;45.462;9.210;2024-03-02T07:17:23;6.70;;;4.47;;
40256;SDS011;25977;45.462;9.210;2024-03-02T07:19:50;6.95;;;4.25;;
40256;SDS011;25977;45.462;9.210;2024-03-02T07:22:15;6.60;;;5.97;;
40256;SDS011;25977;45.462;9.210;2024-03-02T07:24:41;5.70;;;4.20;;
40256;SDS011;25977;45.462;9.210;2024-03-02T07:27:10;6.90;;;4.50;;
40256;SDS011;25977;45.462;9.210;2024-03-02T07:29:37;14.20;;;6.40;;
40256;SDS011;25977;45.462;9.210;2024-03-02T07:32:03;6.75;;;5.80;;
40256;SDS011;25977;45.462;9.210;2024-03-02T07:34:30;4.80;;;4.32;;
40256;SDS011;25977;45.462;9.210;2024-03-02T07:36:56;6.93;;;5.65;;
40256;SDS011;25977;45.462;9.210;2024-03-02T07:39:22;8.52;;;4.97;;
40256;SDS011;25977;45.462;9.210;2024-03-02T07:41:48;6.35;;;5.13;;
40256;SDS011;25977;45.462;9.210;2024-03-02T07:44:14;8.75;;;4.72;;
40256;SDS011;25977;45.462;9.210;2024-03-02T07:46:43;4.75;;;4.35;;
40256;SDS011;25977;45.462;9.210;2024-03-02T07:49:09;4.72;;;4.20;;
40256;SDS011;25977;45.462;9.210;2024-03-02T07:51:35;8.95;;;4.47;;
40256;SDS011;25977;45.462;9.210;2024-03-02T07:54:04;5.10;;;4.40;;
40256;SDS011;25977;45.462;9.210;2024-03-02T07:56:30;4.68;;;4.28;;
40256;SDS011;25977;45.462;9.210;2024-03-02T07:58:55;5.32;;;4.38;;
40256;SDS011;25977;45.462;9.210;2024-03-02T08:01:27;5.20;;;4.00;;
40256;SDS011;25977;45.462;9.210;2024-03-02T08:03:55;5.13;;;4.72;;
40256;SDS011;25977;45.462;9.210;2024-03-02T08:06:25;5.63;;;5.13;;
40256;SDS011;25977;45.462;9.210;2024-03-02T08:08:59;4.68;;;4.22;;
40256;SDS011;25977;45.462;9.210;2024-03-02T08:11:26;5.35;;;4.57;;
40256;SDS011;25977;45.462;9.210;2024-03-02T08:13:56;5.45;;;4.70;;
40256;SDS011;25977;45.462;9.210;2024-03-02T08:16:24;4.35;;;4.05;;
40256;SDS011;25977;45.462;9.210;2024-03-02T08:18:50;4.70;;;4.28;;
40256;SDS011;25977;45.462;9.210;2024-03-02T08:21:16;3.63;;;3.33;;
40256;SDS011;25977;45.462;9.210;2024-03-02T08:23:43;4.38;;;3.95;;
40256;SDS011;25977;45.462;9.210;2024-03-02T08:26:09;5.18;;;4.15;;
40256;SDS011;25977;45.462;9.210;2024-03-02T08:28:35;4.13;;;3.58;;
40256;SDS011;25977;45.462;9.210;2024-03-02T08:31:05;8.38;;;3.75;;
40256;SDS011;25977;45.462;9.210;2024-03-02T08:33:32;7.95;;;3.40;;
40256;SDS011;25977;45.462;9.210;2024-03-02T08:35:58;4.78;;;4.10;;
40256;SDS011;25977;45.462;9.210;2024-03-02T08:38:24;7.45;;;3.65;;
40256;SDS011;25977;45.462;9.210;2024-03-02T08:40:50;3.80;;;3.50;;
40256;SDS011;25977;45.462;9.210;2024-03-02T08:43:16;5.68;;;3.35;;
40256;SDS011;25977;45.462;9.210;2024-03-02T08:45:42;2.30;;;2.10;;
40256;SDS011;25977;45.462;9.210;2024-03-02T08:48:08;2.45;;;2.35;;
40256;SDS011;25977;45.462;9.210;2024-03-02T08:50:34;2.65;;;2.50;;
40256;SDS011;25977;45.462;9.210;2024-03-02T08:53:00;2.08;;;1.95;;
40256;SDS011;25977;45.462;9.210;2024-03-02T08:55:26;2.67;;;2.55;;
40256;SDS011;25977;45.462;9.210;2024-03-02T08:57:51;2.30;;;2.20;;
40256;SDS011;25977;45.462;9.210;2024-03-02T09:00:17;2.30;;;2.10;;
40256;SDS011;25977;45.462;9.210;2024-03-02T09:02:44;2.20;;;2.10;;
40256;SDS011;25977;45.462;9.210;2024-03-02T09:05:10;2.28;;;2.17;;
40256;SDS011;25977;45.462;9.210;2024-03-02T09:07:36;1.73;;;1.60;;
40256;SDS011;25977;45.462;9.210;2024-03-02T09:10:07;1.98;;;1.88;;
40256;SDS011;25977;45.462;9.210;2024-03-02T09:12:33;2.05;;;1.88;;
40256;SDS011;25977;45.462;9.210;2024-03-02T09:15:00;1.75;;;1.65;;
40256;SDS011;25977;45.462;9.210;2024-03-02T09:17:26;1.90;;;1.80;;
40256;SDS011;25977;45.462;9.210;2024-03-02T09:19:52;2.22;;;2.13;;
40256;SDS011;25977;45.462;9.210;2024-03-02T09:22:21;1.77;;;1.65;;
40256;SDS011;25977;45.462;9.210;2024-03-02T09:24:46;1.80;;;1.70;;
40256;SDS011;25977;45.462;9.210;2024-03-02T09:27:12;4.30;;;2.75;;
40256;SDS011;25977;45.462;9.210;2024-03-02T09:29:38;2.55;;;1.90;;
40256;SDS011;25977;45.462;9.210;2024-03-02T09:32:05;2.10;;;2.00;;
40256;SDS011;25977;45.462;9.210;2024-03-02T09:34:31;2.10;;;1.90;;
40256;SDS011;25977;45.462;9.210;2024-03-02T09:36:57;2.97;;;1.70;;
40256;SDS011;25977;45.462;9.210;2024-03-02T09:39:23;3.45;;;2.20;;
40256;SDS011;25977;45.462;9.210;2024-03-02T09:41:50;2.03;;;1.90;;
40256;SDS011;25977;45.462;9.210;2024-03-02T09:44:16;1.88;;;1.77;;
40256;SDS011;25977;45.462;9.210;2024-03-02T09:46:42;2.28;;;2.08;;
40256;SDS011;25977;45.462;9.210;2024-03-02T09:49:09;1.50;;;1.25;;
40256;SDS011;25977;45.462;9.210;2024-03-02T09:51:36;1.80;;;1.70;;
40256;SDS011;25977;45.462;9.210;2024-03-02T09:54:02;1.65;;;1.55;;
40256;SDS011;25977;45.462;9.210;2024-03-02T09:56:28;1.73;;;1.63;;
40256;SDS011;25977;45.462;9.210;2024-03-02T09:58:54;1.60;;;1.50;;
40256;SDS011;25977;45.462;9.210;2024-03-02T10:01:20;1.48;;;1.40;;
40256;SDS011;25977;45.462;9.210;2024-03-02T10:03:46;2.08;;;1.45;;
40256;SDS011;25977;45.462;9.210;2024-03-02T10:06:18;3.15;;;1.15;;
40256;SDS011;25977;45.462;9.210;2024-03-02T10:08:53;1.52;;;1.27;;
40256;SDS011;25977;45.462;9.210;2024-03-02T10:11:30;1.23;;;1.05;;
40256;SDS011;25977;45.462;9.210;2024-03-02T10:14:08;1.10;;;1.10;;
40256;SDS011;25977;45.462;9.210;2024-03-02T10:16:39;1.08;;;1.08;;
40256;SDS011;25977;45.462;9.210;2024-03-02T10:19:15;2.25;;;1.17;;
40256;SDS011;25977;45.462;9.210;2024-03-02T10:21:47;1.45;;;1.35;;
40256;SDS011;25977;45.462;9.210;2024-03-02T10:24:14;1.95;;;1.13;;
40256;SDS011;25977;45.462;9.210;2024-03-02T10:26:40;3.22;;;1.95;;
40256;SDS011;25977;45.462;9.210;2024-03-02T10:29:07;1.38;;;1.27;;
40256;SDS011;25977;45.462;9.210;2024-03-02T10:31:35;3.92;;;1.85;;
40256;SDS011;25977;45.462;9.210;2024-03-02T10:34:02;2.10;;;2.00;;
40256;SDS011;25977;45.462;9.210;2024-03-02T10:36:29;3.85;;;1.60;;
40256;SDS011;25977;45.462;9.210;2024-03-02T10:38:56;2.88;;;2.08;;
40256;SDS011;25977;45.462;9.210;2024-03-02T10:41:26;5.47;;;2.95;;
40256;SDS011;25977;45.462;9.210;2024-03-02T10:43:54;3.40;;;2.33;;
40256;SDS011;25977;45.462;9.210;2024-03-02T10:46:30;3.47;;;2.08;;
40256;SDS011;25977;45.462;9.210;2024-03-02T10:48:57;2.67;;;2.38;;
40256;SDS011;25977;45.462;9.210;2024-03-02T10:51:26;3.70;;;2.58;;
40256;SDS011;25977;45.462;9.210;2024-03-02T10:53:56;3.60;;;2.97;;
40256;SDS011;25977;45.462;9.210;2024-03-02T10:56:29;5.97;;;3.75;;
40256;SDS011;25977;45.462;9.210;2024-03-02T10:59:03;2.33;;;2.13;;
40256;SDS011;25977;45.462;9.210;2024-03-02T11:01:41;3.67;;;3.38;;
40256;SDS011;25977;45.462;9.210;2024-03-02T11:04:09;4.68;;;3.72;;
40256;SDS011;25977;45.462;9.210;2024-03-02T11:06:37;2.60;;;2.40;;
40256;SDS011;25977;45.462;9.210;2024-03-02T11:09:06;3.08;;;2.78;;
40256;SDS011;25977;45.462;9.210;2024-03-02T11:11:40;10.43;;;3.40;;
40256;SDS011;25977;45.462;9.210;2024-03-02T11:14:10;2.38;;;2.20;;
40256;SDS011;25977;45.462;9.210;2024-03-02T11:16:38;2.45;;;2.25;;
40256;SDS011;25977;45.462;9.210;2024-03-02T11:19:07;3.10;;;2.20;;
40256;SDS011;25977;45.462;9.210;2024-03-02T11:21:38;2.35;;;2.22;;
40256;SDS011;25977;45.462;9.210;2024-03-02T11:26:49;2.47;;;2.28;;
40256;SDS011;25977;45.462;9.210;2024-03-02T11:32:02;4.05;;;3.65;;
40256;SDS011;25977;45.462;9.210;2024-03-02T11:34:35;3.58;;;3.08;;
40256;SDS011;25977;45.462;9.210;2024-03-02T11:37:01;3.75;;;3.55;;
40256;SDS011;25977;45.462;9.210;2024-03-02T11:39:28;3.75;;;3.45;;
40256;SDS011;25977;45.462;9.210;2024-03-02T11:41:55;4.28;;;3.80;;
40256;SDS011;25977;45.462;9.210;2024-03-02T11:44:21;4.32;;;4.03;;
40256;SDS011;25977;45.462;9.210;2024-03-02T11:47:10;3.33;;;3.03;;
40256;SDS011;25977;45.462;9.210;2024-03-02T11:52:16;3.55;;;3.35;;
40256;SDS011;25977;45.462;9.210;2024-03-02T11:54:43;4.43;;;3.65;;
40256;SDS011;25977;45.462;9.210;2024-03-02T11:57:20;7.75;;;4.00;;
40256;SDS011;25977;45.462;9.210;2024-03-02T11:59:51;3.97;;;3.65;;
40256;SDS011;25977;45.462;9.210;2024-03-02T12:02:18;3.97;;;3.67;;
40256;SDS011;25977;45.462;9.210;2024-03-02T12:04:45;7.03;;;3.42;;
40256;SDS011;25977;45.462;9.210;2024-03-02T12:07:13;3.53;;;2.95;;
40256;SDS011;25977;45.462;9.210;2024-03-02T12:09:47;6.05;;;4.22;;
40256;SDS011;25977;45.462;9.210;2024-03-02T12:12:13;3.70;;;3.50;;
40256;SDS011;25977;45.462;9.210;2024-03-02T12:14:49;3.72;;;3.50;;
40256;SDS011;25977;45.462;9.210;2024-03-02T12:17:17;4.20;;;3.78;;
40256;SDS011;25977;45.462;9.210;2024-03-02T12:19:42;4.18;;;3.88;;
40256;SDS011;25977;45.462;9.210;2024-03-02T12:22:08;4.70;;;4.30;;
40256;SDS011;25977;45.462;9.210;2024-03-02T12:24:33;4.00;;;3.70;;
40256;SDS011;25977;45.462;9.210;2024-03-02T12:26:59;3.38;;;3.17;;
40256;SDS011;25977;45.462;9.210;2024-03-02T12:29:25;3.65;;;2.97;;
40256;SDS011;25977;45.462;9.210;2024-03-02T12:31:52;5.72;;;3.08;;
40256;SDS011;25977;45.462;9.210;2024-03-02T12:34:18;3.97;;;3.47;;
40256;SDS011;25977;45.462;9.210;2024-03-02T12:36:47;3.03;;;2.83;;
40256;SDS011;25977;45.462;9.210;2024-03-02T12:39:17;3.38;;;3.17;;
40256;SDS011;25977;45.462;9.210;2024-03-02T12:41:48;3.88;;;3.58;;
40256;SDS011;25977;45.462;9.210;2024-03-02T12:44:19;3.50;;;3.17;;
40256;SDS011;25977;45.462;9.210;2024-03-02T12:46:45;4.47;;;4.15;;
40256;SDS011;25977;45.462;9.210;2024-03-02T12:49:12;3.70;;;3.40;;
40256;SDS011;25977;45.462;9.210;2024-03-02T12:51:41;3.65;;;3.40;;
40256;SDS011;25977;45.462;9.210;2024-03-02T12:54:08;3.67;;;3.38;;
40256;SDS011;25977;45.462;9.210;2024-03-02T12:56:35;5.80;;;3.83;;
40256;SDS011;25977;45.462;9.210;2024-03-02T12:59:03;3.25;;;2.95;;
40256;SDS011;25977;45.462;9.210;2024-03-02T13:01:29;4.20;;;3.90;;
40256;SDS011;25977;45.462;9.210;2024-03-02T13:03:56;4.35;;;3.47;;
40256;SDS011;25977;45.462;9.210;2024-03-02T13:06:23;4.03;;;3.63;;
40256;SDS011;25977;45.462;9.210;2024-03-02T13:08:52;4.38;;;4.00;;
40256;SDS011;25977;45.462;9.210;2024-03-02T13:11:18;4.47;;;4.10;;
40256;SDS011;25977;45.462;9.210;2024-03-02T13:13:44;7.75;;;4.05;;
40256;SDS011;25977;45.462;9.210;2024-03-02T13:16:10;4.03;;;3.65;;
40256;SDS011;25977;45.462;9.210;2024-03-02T13:18:40;7.13;;;3.95;;
40256;SDS011;25977;45.462;9.210;2024-03-02T13:21:06;9.02;;;3.75;;
40256;SDS011;25977;45.462;9.210;2024-03-02T13:23:32;5.85;;;4.00;;
40256;SDS011;25977;45.462;9.210;2024-03-02T13:25:58;4.30;;;4.00;;
40256;SDS011;25977;45.462;9.210;2024-03-02T13:28:27;5.35;;;4.18;;
40256;SDS011;25977;45.462;9.210;2024-03-02T13:30:53;3.95;;;3.65;;
40256;SDS011;25977;45.462;9.210;2024-03-02T13:33:19;4.25;;;3.85;;
40256;SDS011;25977;45.462;9.210;2024-03-02T13:35:48;4.03;;;3.72;;
40256;SDS011;25977;45.462;9.210;2024-03-02T13:38:16;4.65;;;4.13;;
40256;SDS011;25977;45.462;9.210;2024-03-02T13:40:43;4.50;;;4.10;;
40256;SDS011;25977;45.462;9.210;2024-03-02T13:43:08;4.57;;;3.75;;
40256;SDS011;25977;45.462;9.210;2024-03-02T13:45:34;4.25;;;3.85;;
40256;SDS011;25977;45.462;9.210;2024-03-02T13:48:01;4.72;;;3.95;;
40256;SDS011;25977;45.462;9.210;2024-03-02T13:50:28;5.40;;;4.63;;
40256;SDS011;25977;45.462;9.210;2024-03-02T13:52:55;3.78;;;3.47;;
40256;SDS011;25977;45.462;9.210;2024-03-02T13:55:21;5.50;;;3.58;;
40256;SDS011;25977;45.462;9.210;2024-03-02T13:57:47;6.28;;;5.45;;
40256;SDS011;25977;45.462;9.210;2024-03-02T14:00:15;4.30;;;4.00;;
40256;SDS011;25977;45.462;9.210;2024-03-02T14:02:42;5.68;;;4.50;;
40256;SDS011;25977;45.462;9.210;2024-03-02T14:05:08;4.68;;;4.15;;
40256;SDS011;25977;45.462;9.210;2024-03-02T14:07:43;5.75;;;4.82;;
40256;SDS011;25977;45.462;9.210;2024-03-02T14:10:09;5.57;;;5.00;;
40256;SDS011;25977;45.462;9.210;2024-03-02T14:12:35;4.72;;;4.35;;
40256;SDS011;25977;45.462;9.210;2024-03-02T14:15:01;5.05;;;4.53;;
40256;SDS011;25977;45.462;9.210;2024-03-02T14:17:28;5.88;;;5.38;;
40256;SDS011;25977;45.462;9.210;2024-03-02T14:19:54;5.97;;;5.10;;
40256;SDS011;25977;45.462;9.210;2024-03-02T14:22:20;6.13;;;5.63;;
40256;SDS011;25977;45.462;9.210;2024-03-02T14:24:46;8.27;;;6.10;;
40256;SDS011;25977;45.462;9.210;2024-03-02T14:27:13;7.43;;;5.55;;
40256;SDS011;25977;45.462;9.210;2024-03-02T14:29:39;7.63;;;5.65;;
40256;SDS011;25977;45.462;9.210;2024-03-02T14:32:06;7.75;;;6.32;;
40256;SDS011;25977;45.462;9.210;2024-03-02T14:34:33;6.18;;;5.57;;
40256;SDS011;25977;45.462;9.210;2024-03-02T14:36:59;6.40;;;5.80;;
40256;SDS011;25977;45.462;9.210;2024-03-02T14:39:25;6.60;;;6.00;;
40256;SDS011;25977;45.462;9.210;2024-03-02T14:41:51;6.15;;;5.65;;
40256;SDS011;25977;45.462;9.210;2024-03-02T14:44:17;7.97;;;5.78;;
40256;SDS011;25977;45.462;9.210;2024-03-02T14:46:43;6.07;;;5.57;;
40256;SDS011;25977;45.462;9.210;2024-03-02T14:49:11;7.30;;;5.45;;
40256;SDS011;25977;45.462;9.210;2024-03-02T14:51:38;5.68;;;5.18;;
40256;SDS011;25977;45.462;9.210;2024-03-02T14:54:03;6.05;;;5.50;;
40256;SDS011;25977;45.462;9.210;2024-03-02T14:56:29;6.82;;;6.07;;
40256;SDS011;25977;45.462;9.210;2024-03-02T14:58:55;7.47;;;6.38;;
40256;SDS011;25977;45.462;9.210;2024-03-02T15:01:20;6.32;;;5.72;;